createdAt,value
2022-10-16T02:40:11.419Z,10.00
2022-10-16T02:44:46.858Z,8.02
2022-10-16T02:53:52.704Z,6.38
2022-10-16T02:57:57.394Z,6.47
2022-10-16T03:02:01.288Z,6.18
2022-10-16T03:06:12.861Z,5.32
2022-10-16T03:10:16.785Z,5.68
2022-10-16T03:14:22.613Z,5.85
2022-10-16T03:18:28.784Z,5.30
2022-10-16T03:22:32.176Z,5.47
2022-10-16T03:26:37.953Z,7.25
2022-10-16T03:30:41.328Z,6.60
2022-10-16T03:34:47.035Z,5.95
2022-10-16T03:38:50.631Z,5.90
2022-10-16T03:42:58.374Z,7.20
2022-10-16T03:47:01.800Z,5.28
2022-10-16T03:51:07.092Z,5.55
2022-10-16T03:55:12.257Z,5.00
2022-10-16T03:59:21.368Z,4.78
2022-10-16T04:03:50.437Z,5.80
2022-10-16T04:07:54.074Z,5.70
2022-10-16T04:12:01.405Z,6.32
2022-10-16T04:16:05.183Z,6.13
2022-10-16T04:20:10.702Z,4.95
2022-10-16T04:24:16.411Z,6.10
2022-10-16T04:28:20.028Z,6.20
2022-10-16T04:32:27.424Z,5.60
2022-10-16T04:43:10.650Z,6.57
2022-10-16T04:47:21.081Z,6.47
2022-10-16T04:51:50.603Z,6.60
2022-10-16T04:56:28.005Z,7.40
2022-10-16T05:12:47.697Z,8.05
2022-10-16T05:23:41.667Z,7.40
2022-10-16T05:27:48.557Z,6.95
2022-10-16T05:38:15.016Z,6.70
2022-10-16T05:49:10.378Z,6.57
2022-10-16T05:53:26.517Z,5.55
2022-10-16T05:57:29.989Z,7.15
2022-10-16T06:02:01.363Z,6.78
2022-10-16T06:12:21.732Z,7.93
2022-10-16T06:16:28.539Z,12.32
2022-10-16T06:25:27.246Z,7.72
2022-10-16T06:29:36.731Z,12.48
2022-10-16T06:34:10.210Z,15.25
2022-10-16T06:45:25.942Z,15.98
2022-10-16T06:49:31.865Z,13.32
2022-10-16T06:54:04.170Z,13.32
2022-10-16T06:58:11.013Z,13.45
2022-10-16T07:02:40.803Z,12.32
2022-10-16T07:06:47.187Z,11.38
2022-10-16T07:11:18.261Z,12.48
2022-10-16T07:15:53.120Z,12.63
2022-10-16T07:20:52.553Z,12.77
2022-10-16T07:25:22.593Z,12.20
2022-10-16T07:30:45.649Z,14.68
2022-10-16T07:35:15.616Z,13.88
2022-10-16T07:39:19.389Z,14.23
2022-10-16T07:55:27.680Z,17.58
2022-10-16T07:59:33.572Z,17.40
2022-10-16T08:03:38.440Z,18.73
2022-10-16T08:08:06.994Z,19.88
2022-10-16T08:12:43.698Z,20.48
2022-10-16T08:16:50.250Z,18.67
2022-10-16T08:20:59.816Z,20.17
2022-10-16T08:25:06.561Z,20.90
2022-10-16T08:29:15.923Z,22.75
2022-10-16T08:33:22.015Z,25.60
2022-10-16T08:37:25.563Z,20.40
2022-10-16T08:42:04.324Z,21.92
2022-10-16T08:51:41.858Z,33.30
2022-10-16T08:55:54.324Z,40.35
2022-10-16T09:00:02.331Z,37.33
2022-10-16T09:04:15.777Z,33.72
2022-10-16T09:08:24.281Z,27.25
2022-10-16T09:12:56.465Z,21.00
2022-10-16T09:22:17.251Z,16.17
2022-10-16T09:30:30.491Z,13.13
2022-10-16T09:34:38.388Z,12.27
2022-10-16T09:38:41.603Z,11.75
2022-10-16T09:42:47.822Z,13.32
2022-10-16T09:47:19.071Z,13.13
2022-10-16T09:51:39.684Z,13.15
2022-10-16T09:55:54.304Z,13.13
2022-10-16T10:00:00.089Z,12.32
2022-10-16T10:04:04.084Z,12.85
2022-10-16T10:08:09.029Z,13.45
2022-10-16T10:12:29.741Z,20.75
2022-10-16T10:16:36.347Z,14.02
2022-10-16T10:25:16.367Z,8.98
2022-10-16T10:29:31.919Z,9.55
2022-10-16T10:33:49.977Z,9.60
2022-10-16T10:38:05.353Z,8.73
2022-10-16T10:42:52.589Z,8.65
2022-10-16T10:47:42.096Z,8.25
2022-10-16T10:53:35.246Z,7.65
2022-10-16T10:58:25.221Z,8.48
2022-10-16T11:02:55.305Z,6.72
2022-10-16T11:07:05.883Z,7.72
2022-10-16T11:11:17.680Z,7.40
2022-10-16T11:15:26.542Z,6.18
2022-10-16T11:24:47.171Z,5.50
2022-10-16T11:29:32.068Z,4.93
2022-10-16T11:34:04.411Z,4.10
2022-10-16T11:38:38.805Z,4.40
2022-10-16T11:42:50.059Z,3.83
2022-10-16T11:47:33.687Z,4.32
2022-10-16T11:51:53.423Z,3.70
2022-10-16T11:56:18.278Z,3.60
2022-10-16T12:00:32.196Z,3.10
2022-10-16T12:04:59.827Z,3.45
2022-10-16T12:09:07.319Z,2.42
2022-10-16T12:13:39.685Z,3.42
2022-10-16T12:17:42.584Z,4.90
2022-10-16T12:21:46.874Z,3.35
2022-10-16T12:26:00.872Z,2.63
2022-10-16T12:30:09.179Z,3.10
2022-10-16T12:34:44.279Z,3.03
2022-10-16T13:11:21.164Z,2.25
2022-10-16T13:15:58.582Z,2.13
2022-10-16T13:20:43.128Z,2.08
2022-10-16T13:25:29.881Z,1.88
2022-10-16T13:29:34.853Z,2.75
2022-10-16T13:33:43.220Z,2.25
2022-10-16T13:38:37.673Z,1.70
2022-10-16T13:43:26.327Z,2.00
2022-10-16T13:47:31.215Z,1.75
2022-10-16T13:51:34.697Z,1.80
2022-10-16T13:55:38.022Z,1.90
2022-10-16T13:59:42.671Z,1.73
2022-10-16T14:03:49.472Z,2.08
2022-10-16T14:07:58.470Z,2.00
2022-10-16T14:12:09.590Z,2.10
2022-10-16T14:16:24.676Z,2.08
2022-10-16T14:20:34.329Z,2.00
2022-10-16T14:29:34.222Z,3.38
2022-10-16T14:33:37.837Z,2.53
2022-10-16T14:37:40.702Z,3.08
2022-10-16T14:41:50.114Z,2.70
2022-10-16T14:45:58.192Z,2.67
2022-10-16T14:50:03.557Z,2.92
2022-10-16T14:54:06.648Z,3.20
2022-10-16T14:58:15.152Z,2.70
2022-10-16T15:02:35.932Z,2.90
2022-10-16T15:06:39.518Z,2.72
2022-10-16T15:10:45.025Z,2.90
2022-10-16T15:14:47.794Z,2.55
2022-10-16T15:18:50.620Z,2.72
2022-10-16T15:22:53.784Z,2.40
2022-10-16T15:26:56.588Z,2.72
2022-10-16T15:30:59.649Z,2.70
2022-10-16T15:35:04.488Z,2.55
2022-10-16T15:39:14.711Z,2.65
2022-10-16T15:43:17.965Z,2.53
2022-10-16T15:47:21.015Z,2.75
2022-10-16T15:51:33.659Z,2.58
2022-10-16T15:56:08.855Z,2.80
2022-10-16T16:00:26.701Z,3.22
2022-10-16T16:04:43.310Z,2.28
2022-10-16T16:08:46.726Z,3.00
2022-10-16T16:12:53.046Z,2.72
2022-10-16T16:17:17.454Z,2.83
2022-10-16T16:21:20.575Z,3.33
2022-10-16T16:29:42.301Z,3.70
2022-10-16T16:33:45.826Z,4.20
2022-10-16T16:37:49.650Z,4.20
2022-10-16T16:41:54.648Z,4.80
2022-10-16T16:46:06.138Z,4.30
2022-10-16T17:04:40.402Z,4.80
2022-10-16T17:14:27.643Z,4.80
2022-10-16T18:11:09.265Z,4.80
2022-10-16T18:16:27.524Z,5.53
2022-10-16T18:27:12.603Z,4.40
2022-10-16T18:32:39.268Z,4.37
2022-10-16T18:43:31.348Z,4.43
2022-10-16T18:48:20.100Z,3.63
2022-10-16T18:52:24.074Z,4.28
2022-10-16T18:56:40.013Z,3.95
2022-10-16T19:00:52.227Z,4.10
2022-10-16T19:04:55.785Z,4.20
2022-10-16T19:08:59.511Z,4.13
2022-10-16T19:13:03.654Z,4.03
2022-10-16T19:17:08.520Z,4.00
2022-10-16T19:21:14.418Z,4.15
2022-10-16T19:25:25.428Z,3.47
2022-10-16T19:29:49.392Z,4.00
2022-10-16T19:34:41.803Z,4.40
2022-10-16T19:39:03.781Z,4.05
2022-10-16T19:50:15.405Z,3.50
2022-10-16T19:54:50.694Z,3.30
2022-10-16T20:15:17.276Z,3.88
2022-10-16T20:27:02.427Z,3.70
2022-10-16T20:31:20.176Z,3.67
2022-10-16T20:35:59.094Z,3.15
2022-10-16T20:40:35.241Z,3.35
2022-10-16T20:44:47.903Z,3.45
2022-10-16T20:48:53.748Z,3.22
2022-10-16T20:52:57.689Z,3.35
2022-10-16T20:57:00.604Z,3.33
2022-10-16T21:01:09.123Z,3.55
2022-10-16T21:05:12.369Z,3.15
2022-10-16T21:09:15.427Z,3.00
2022-10-16T21:13:18.431Z,3.38
2022-10-16T21:17:21.277Z,3.03
2022-10-16T21:21:27.406Z,3.35
2022-10-16T21:25:30.302Z,3.25
2022-10-16T21:29:35.851Z,3.78
2022-10-16T21:33:38.888Z,7.30
2022-10-16T21:37:41.762Z,3.63
2022-10-16T21:41:46.534Z,3.40
2022-10-16T21:45:49.924Z,3.03
2022-10-16T21:49:52.836Z,3.80
2022-10-16T21:53:56.135Z,3.40
2022-10-16T21:57:59.101Z,4.20
2022-10-16T22:02:03.368Z,3.33
2022-10-16T22:06:08.479Z,3.75
2022-10-16T22:10:11.512Z,3.60
2022-10-16T22:14:20.189Z,5.65
2022-10-16T22:18:23.129Z,4.28
2022-10-16T22:22:26.041Z,3.90
2022-10-16T22:26:29.090Z,3.70
2022-10-16T22:30:35.809Z,3.55
2022-10-16T22:34:38.797Z,3.60
2022-10-16T22:38:42.393Z,3.72
2022-10-16T22:42:45.427Z,3.33
2022-10-16T22:46:49.460Z,3.72
2022-10-16T22:50:52.762Z,3.13
2022-10-16T22:54:55.736Z,4.07
2022-10-16T22:58:58.867Z,3.67
2022-10-16T23:03:01.793Z,3.92
2022-10-16T23:07:04.690Z,4.03
2022-10-16T23:11:10.213Z,4.47
2022-10-16T23:15:13.380Z,3.58
2022-10-16T23:19:16.873Z,4.63
2022-10-16T23:23:19.749Z,4.05
2022-10-16T23:27:22.640Z,4.78
2022-10-16T23:31:26.355Z,4.53
2022-10-16T23:35:29.231Z,5.68
2022-10-16T23:39:32.307Z,6.10
2022-10-16T23:43:35.986Z,5.38
2022-10-16T23:47:38.896Z,4.43
2022-10-16T23:51:41.860Z,4.47
2022-10-16T23:55:49.928Z,4.93
2022-10-16T23:59:53.030Z,4.72
